UKDE/OZH METAR and TAF weather

Enter ICAO airport designator
Station Type Date Time Source
UKDE METAR 2020/01/27 17:00 UTC NOAA

UKDE 271700Z 09001MPS 2100 BR NSC M01/M02 Q1018 R20L/090070 TEMPO 0300 FZFG VV002


Station Type Date Time Source
UKDE Decoded METAR 2020/01/27 17:00 UTC NOAA

Zaporizhzhia / Mokraya, Ukraine (UKDE) 47-52-02N 035-18-59E
Jan 27, 2020 - 12:00 PM EST / 2020.01.27 1700 UTC
Wind: from the E (090 degrees) at 2 MPH (2 KT):0
Visibility: 1 mile(s):0
Weather: mist
Temperature: 30 F (-1 C)
Dew Point: 28 F (-2 C)
Relative Humidity: 92%
Pressure (altimeter): 30.06 in. Hg (1018 hPa)
ob: UKDE 271700Z 09001MPS 2100 BR NSC M01/M02 Q1018 R20L/090070 TEMPO 0300 FZFG VV002
cycle: 17

Station Type Date Time Source
UKDE TAF 2019/12/20 16:09 UTC NOAA

TAF
AMD TAF
AMD UKDE 201606Z 2016/2124 09003MPS 0100 FZFG VV001 TXM01/2016Z TNM03/2124Z
TEMPO 2018/2021 1000 BR OVC003

Example: see airport list